createdAt,value
2018-06-04T06:31:10.501Z,6.60
2018-06-04T06:33:11.400Z,6.60
2018-06-04T06:34:12.013Z,6.40
2018-06-04T06:35:12.635Z,6.20
2018-06-04T06:36:13.234Z,6.50
2018-06-04T06:37:13.885Z,6.50
2018-06-04T06:38:14.515Z,5.70
2018-06-04T06:39:15.141Z,6.40
2018-06-04T06:40:15.773Z,5.80
2018-06-04T06:41:16.388Z,6.60
2018-06-04T06:42:17.065Z,6.30
2018-06-04T06:43:17.699Z,6.10
2018-06-04T06:44:18.296Z,5.70
2018-06-04T06:45:18.938Z,5.80
2018-06-04T06:46:19.544Z,5.70
2018-06-04T06:47:20.109Z,5.90
2018-06-04T06:48:20.752Z,6.20
2018-06-04T06:49:21.357Z,5.40
2018-06-04T06:50:22.033Z,5.60
2018-06-04T06:51:22.630Z,5.10
2018-06-04T06:52:23.440Z,5.10
2018-06-04T06:53:24.028Z,5.40
2018-06-04T06:54:24.656Z,5.50
2018-06-04T06:55:25.273Z,5.50
2018-06-04T06:56:25.910Z,5.50
2018-06-04T06:57:26.480Z,5.50
2018-06-04T06:58:27.161Z,5.30
2018-06-04T06:59:27.750Z,5.50
2018-06-04T07:00:28.363Z,5.40
2018-06-04T07:01:28.950Z,5.70
2018-06-04T07:02:29.591Z,5.30
2018-06-04T07:03:30.210Z,5.40
2018-06-04T07:04:30.824Z,5.40
2018-06-04T07:05:31.421Z,5.70
2018-06-04T07:06:32.136Z,5.40
2018-06-04T07:07:32.801Z,5.20
2018-06-04T07:08:33.428Z,6.10
2018-06-04T07:09:34.009Z,5.50
2018-06-04T07:10:34.631Z,6.20
2018-06-04T07:11:35.276Z,5.50
2018-06-04T07:13:36.252Z,6.00
2018-06-04T07:14:37.043Z,5.50
2018-06-04T07:15:38.351Z,5.60
2018-06-04T07:16:38.997Z,5.00
2018-06-04T07:17:39.610Z,5.00
2018-06-04T07:18:40.234Z,5.20
2018-06-04T07:19:40.910Z,4.90
2018-06-04T07:20:41.515Z,5.60
2018-06-04T07:21:42.145Z,5.90
2018-06-04T07:22:48.661Z,5.30
2018-06-04T07:23:55.264Z,5.30
2018-06-04T07:30:19.125Z,4.70
2018-06-04T07:31:19.711Z,5.50
2018-06-04T07:32:25.102Z,5.30
2018-06-04T07:33:25.762Z,5.30
2018-06-04T07:34:27.081Z,5.40
2018-06-04T07:35:27.774Z,5.40
2018-06-04T07:45:19.738Z,4.50
2018-06-04T07:46:20.340Z,5.10
2018-06-04T07:47:39.176Z,5.30
2018-06-04T07:53:53.967Z,4.80
2018-06-04T07:54:54.569Z,5.20
2018-06-04T07:55:55.384Z,5.30
2018-06-04T08:01:19.340Z,5.10
2018-06-04T08:02:20.004Z,5.70
2018-06-04T08:05:44.256Z,5.00
2018-06-04T08:06:44.841Z,5.50
2018-06-04T08:10:21.353Z,4.30
2018-06-04T08:11:21.955Z,5.50
2018-06-04T08:13:42.182Z,4.20
2018-06-04T08:14:42.797Z,5.00
2018-06-04T08:17:17.879Z,3.90
2018-06-04T08:18:18.592Z,5.00
2018-06-04T08:20:52.422Z,4.30
2018-06-04T08:23:48.118Z,4.40
2018-06-04T08:24:48.899Z,4.70
2018-06-04T08:26:48.053Z,4.40
2018-06-04T08:29:26.978Z,3.60
2018-06-04T08:30:27.559Z,5.10
2018-06-04T08:32:27.852Z,5.30
2018-06-04T08:34:47.723Z,4.20
2018-06-04T08:37:29.676Z,5.30
2018-06-04T08:38:30.311Z,4.50
2018-06-04T08:40:11.548Z,5.30
2018-06-04T08:42:02.039Z,5.00
2018-06-04T08:43:38.020Z,5.10
2018-06-04T08:45:34.914Z,4.50
2018-06-04T08:47:39.002Z,4.30
2018-06-04T08:49:19.136Z,4.20
2018-06-04T08:51:15.975Z,4.70
2018-06-04T08:52:49.594Z,0.00
2018-06-04T08:54:06.802Z,3.60
2018-06-04T08:55:38.141Z,4.60
2018-06-04T08:56:55.564Z,4.10
2018-06-04T08:58:10.083Z,3.80
2018-06-04T08:59:23.042Z,2.50
2018-06-04T09:00:44.743Z,4.40
2018-06-04T09:02:22.472Z,4.20
2018-06-04T09:03:42.591Z,4.10
2018-06-04T09:05:08.939Z,4.00
2018-06-04T09:06:54.796Z,4.40
2018-06-04T09:08:45.074Z,4.60
2018-06-04T09:09:45.672Z,4.30
2018-06-04T09:11:17.325Z,3.70
2018-06-04T09:12:17.992Z,4.40
2018-06-04T09:13:15.110Z,2.70
2018-06-04T09:14:15.721Z,4.20
2018-06-04T09:15:30.275Z,3.50
2018-06-04T09:16:30.860Z,4.70
2018-06-04T09:17:31.459Z,4.60
2018-06-04T09:18:40.410Z,3.60
2018-06-04T09:19:40.998Z,4.40
2018-06-04T09:20:41.623Z,4.30
2018-06-04T09:21:42.323Z,4.00
2018-06-04T09:22:42.942Z,3.80
2018-06-04T09:23:43.552Z,4.20
2018-06-04T09:24:44.163Z,4.20
2018-06-04T09:25:44.811Z,3.80
2018-06-04T09:26:45.463Z,4.30
2018-06-04T09:27:46.106Z,4.00
2018-06-04T09:28:46.754Z,4.00
2018-06-04T09:29:47.351Z,3.90
2018-06-04T09:30:47.919Z,4.10
2018-06-04T09:31:48.563Z,4.20
2018-06-04T09:32:49.186Z,3.90
2018-06-04T09:33:49.770Z,4.00
2018-06-04T09:34:50.394Z,3.90
2018-06-04T09:35:50.987Z,3.80
2018-06-04T09:36:51.763Z,3.80
2018-06-04T09:37:52.406Z,3.80
2018-06-04T09:38:53.007Z,4.00
2018-06-04T09:41:02.488Z,4.00
2018-06-04T09:42:03.108Z,3.80
2018-06-04T09:43:03.761Z,3.80
2018-06-04T09:44:04.355Z,3.90
2018-06-04T09:45:04.946Z,3.90
2018-06-04T09:46:05.545Z,3.90
2018-06-04T09:47:06.134Z,3.70
2018-06-04T09:48:06.712Z,3.60
2018-06-04T09:49:07.355Z,3.80
2018-06-04T09:50:07.945Z,3.80
2018-06-04T09:59:34.250Z,2.90
2018-06-04T10:00:34.879Z,4.00
2018-06-04T10:01:35.494Z,3.70
2018-06-04T10:02:36.117Z,3.60
2018-06-04T10:03:36.729Z,4.20
2018-06-04T10:04:37.479Z,3.90
2018-06-04T10:05:38.122Z,3.80
2018-06-04T10:06:38.793Z,3.80
2018-06-04T10:07:39.401Z,4.00
2018-06-04T10:08:40.026Z,4.00
2018-06-04T10:09:40.720Z,3.80
2018-06-04T10:11:41.650Z,3.80
2018-06-04T10:13:42.522Z,3.30
2018-06-04T10:14:43.258Z,3.30
2018-06-04T10:15:43.862Z,3.30
2018-06-04T10:16:44.496Z,3.20
2018-06-04T10:17:45.157Z,3.40
2018-06-04T10:18:45.743Z,3.50
2018-06-04T10:19:46.424Z,3.10
2018-06-04T10:20:47.015Z,3.40
2018-06-04T10:21:47.575Z,3.50
2018-06-04T10:22:48.165Z,3.40
2018-06-04T10:23:48.752Z,3.20
2018-06-04T10:24:49.333Z,3.30
2018-06-04T10:25:50.000Z,3.00
2018-06-04T10:26:50.607Z,3.20
2018-06-04T10:27:51.199Z,3.30
2018-06-04T10:28:51.829Z,3.00
2018-06-04T10:29:52.413Z,3.10
2018-06-04T10:30:53.007Z,3.20
2018-06-04T10:31:53.674Z,3.00
2018-06-04T10:32:54.306Z,3.30
2018-06-04T10:34:55.185Z,3.20
2018-06-04T10:35:55.803Z,3.20
2018-06-04T10:36:56.402Z,3.00
2018-06-04T10:37:57.161Z,3.10
2018-06-04T10:38:58.346Z,3.10
2018-06-04T10:39:59.081Z,3.00
2018-06-04T10:40:59.693Z,2.80
2018-06-04T10:42:00.423Z,2.90
2018-06-04T10:43:01.031Z,3.00
2018-06-04T10:44:01.697Z,3.00
2018-06-04T10:45:02.316Z,3.00
2018-06-04T10:46:02.963Z,2.70
2018-06-04T10:47:03.647Z,3.20
2018-06-04T10:48:05.157Z,2.90
2018-06-04T10:49:05.786Z,3.00
2018-06-04T10:50:06.412Z,3.00
2018-06-04T10:51:07.005Z,3.00
2018-06-04T10:52:07.657Z,2.90
2018-06-04T10:53:18.320Z,3.10
2018-06-04T10:54:18.904Z,3.10
2018-06-04T10:55:19.546Z,2.90
2018-06-04T10:56:20.282Z,2.70
2018-06-04T10:57:20.932Z,2.80
2018-06-04T10:59:21.833Z,2.70
2018-06-04T11:00:22.474Z,2.80
2018-06-04T11:01:23.080Z,2.60
2018-06-04T11:02:23.713Z,2.60
2018-06-04T11:03:24.280Z,2.60
2018-06-04T11:04:24.884Z,2.50
2018-06-04T11:05:26.629Z,2.60
2018-06-04T11:06:27.333Z,2.60
2018-06-04T11:07:27.958Z,2.40
2018-06-04T11:08:28.607Z,2.50
2018-06-04T11:09:29.244Z,2.60
2018-06-04T11:10:29.900Z,2.60
2018-06-04T11:11:30.497Z,2.60
2018-06-04T11:12:31.098Z,2.30
2018-06-04T11:13:31.704Z,2.50
2018-06-04T11:14:32.306Z,2.80
2018-06-04T11:15:33.872Z,2.60
2018-06-04T11:16:34.462Z,2.50
2018-06-04T11:17:35.143Z,2.50
2018-06-04T11:18:35.733Z,2.70
2018-06-04T11:19:36.407Z,2.40
2018-06-04T11:20:37.030Z,2.50
2018-06-04T11:21:37.683Z,2.50
2018-06-04T11:22:38.270Z,2.60
2018-06-04T11:23:38.910Z,2.70
2018-06-04T11:24:39.517Z,2.70
2018-06-04T11:25:54.319Z,2.60
2018-06-04T11:26:55.016Z,3.10
2018-06-04T11:27:55.603Z,4.00
2018-06-04T11:28:56.992Z,3.70
2018-06-04T11:29:57.613Z,4.80
2018-06-04T11:30:58.238Z,2.90
2018-06-04T11:31:58.860Z,2.80
2018-06-04T11:32:59.463Z,2.40
2018-06-04T11:34:00.076Z,2.40
2018-06-04T11:35:00.680Z,2.50
2018-06-04T11:36:01.320Z,2.50
2018-06-04T11:37:01.940Z,2.60
2018-06-04T11:38:02.532Z,2.50
2018-06-04T11:39:03.141Z,2.60
2018-06-04T11:40:03.766Z,2.70
2018-06-04T11:41:04.368Z,2.70
2018-06-04T11:42:04.999Z,2.70
2018-06-04T11:43:05.575Z,2.70
2018-06-04T11:44:06.540Z,2.90
2018-06-04T11:45:07.196Z,2.70
2018-06-04T11:46:07.811Z,2.70
2018-06-04T11:47:08.409Z,2.70
2018-06-04T11:48:09.053Z,2.80
2018-06-04T11:49:09.723Z,2.60
2018-06-04T11:50:10.414Z,2.80
2018-06-04T11:51:11.063Z,2.70
2018-06-04T11:52:11.694Z,2.70
2018-06-04T11:53:12.287Z,2.90
2018-06-04T11:55:13.146Z,2.70
2018-06-04T11:56:13.942Z,2.80
2018-06-04T11:57:14.567Z,2.80
2018-06-04T11:58:15.190Z,2.70
2018-06-04T11:59:15.778Z,2.90
2018-06-04T12:00:16.425Z,2.70
2018-06-04T12:01:17.503Z,2.90
2018-06-04T12:02:18.116Z,2.70
2018-06-04T12:03:18.732Z,2.80
2018-06-04T12:04:19.468Z,2.80
2018-06-04T12:05:20.095Z,2.70
2018-06-04T12:06:20.700Z,2.60
2018-06-04T12:07:21.319Z,2.80
2018-06-04T12:08:21.943Z,2.70
2018-06-04T12:09:22.589Z,2.70
2018-06-04T12:10:23.181Z,2.80
2018-06-04T12:11:23.818Z,3.10
2018-06-04T12:12:24.457Z,2.70
2018-06-04T12:13:25.049Z,2.80
2018-06-04T12:14:25.688Z,2.70
2018-06-04T12:15:26.326Z,2.60
2018-06-04T12:16:26.946Z,3.00
2018-06-04T12:17:28.322Z,2.80
2018-06-04T12:18:29.068Z,3.00
2018-06-04T12:19:29.796Z,2.50
2018-06-04T12:20:30.464Z,2.90
2018-06-04T12:21:31.154Z,2.90
2018-06-04T12:22:31.767Z,2.70
2018-06-04T12:23:32.373Z,2.80
2018-06-04T12:24:49.879Z,2.80
2018-06-04T12:26:07.149Z,2.80
2018-06-04T12:27:33.769Z,2.80
2018-06-04T12:28:34.360Z,2.70
2018-06-04T12:29:35.017Z,2.70
2018-06-04T12:30:35.639Z,2.70
2018-06-04T12:31:36.497Z,2.90
2018-06-04T12:32:37.786Z,2.80
2018-06-04T12:33:38.359Z,2.80
2018-06-04T12:34:38.977Z,2.90
2018-06-04T12:35:39.582Z,2.80
2018-06-04T12:36:40.239Z,2.80
2018-06-04T12:37:40.896Z,2.90
2018-06-04T12:38:41.510Z,3.00
2018-06-04T12:39:42.303Z,2.70
2018-06-04T12:41:43.206Z,2.90
2018-06-04T12:42:43.807Z,2.90
2018-06-04T12:43:44.528Z,2.80
2018-06-04T12:45:45.406Z,2.90
2018-06-04T12:46:46.119Z,3.20
2018-06-04T12:47:46.755Z,2.80
2018-06-04T12:48:47.346Z,2.90
2018-06-04T12:49:47.965Z,2.90
2018-06-04T12:50:48.580Z,2.90
2018-06-04T12:51:49.412Z,3.00
2018-06-04T12:52:50.029Z,2.70
2018-06-04T12:53:50.634Z,2.90
2018-06-04T12:54:51.310Z,2.70
2018-06-04T12:55:51.961Z,2.90
2018-06-04T12:57:01.082Z,3.10
2018-06-04T12:59:02.053Z,2.80
2018-06-04T13:00:02.672Z,2.90
2018-06-04T13:01:03.239Z,3.00
2018-06-04T13:02:03.846Z,2.80
2018-06-04T13:03:04.455Z,3.10
2018-06-04T13:04:05.055Z,2.60
2018-06-04T13:05:05.648Z,3.00
2018-06-04T13:06:11.199Z,3.20
2018-06-04T13:07:20.033Z,3.40
2018-06-04T13:08:20.630Z,3.00
2018-06-04T13:09:21.222Z,3.40
2018-06-04T13:10:23.051Z,3.00
2018-06-04T13:11:23.829Z,3.00
2018-06-04T13:12:24.410Z,2.90
2018-06-04T13:13:25.040Z,3.50
2018-06-04T13:14:25.724Z,3.30
2018-06-04T13:15:26.334Z,2.80
2018-06-04T13:16:26.954Z,3.00
2018-06-04T13:17:27.572Z,2.90
2018-06-04T13:18:28.166Z,3.10
2018-06-04T13:19:28.995Z,2.90
2018-06-04T13:20:29.603Z,2.90
2018-06-04T13:21:30.269Z,3.00
2018-06-04T13:22:31.707Z,3.10
2018-06-04T13:23:58.242Z,3.10
2018-06-04T13:24:58.930Z,3.00
2018-06-04T13:25:59.576Z,2.80
2018-06-04T13:27:00.159Z,3.20
2018-06-04T13:28:06.999Z,2.90
2018-06-04T13:29:07.612Z,3.00
2018-06-04T13:30:08.225Z,2.80
2018-06-04T13:31:08.811Z,2.90
2018-06-04T13:32:14.731Z,2.90
2018-06-04T13:33:15.342Z,3.10
2018-06-04T13:34:15.991Z,2.70
2018-06-04T13:35:16.652Z,2.60
2018-06-04T13:36:17.248Z,2.70
2018-06-04T13:37:17.834Z,2.70
2018-06-04T13:38:18.442Z,2.80
2018-06-04T13:39:19.164Z,2.90
2018-06-04T13:40:19.807Z,3.10
2018-06-04T13:41:20.412Z,2.80
2018-06-04T13:42:21.055Z,3.00
2018-06-04T13:43:21.873Z,3.40
2018-06-04T13:44:22.437Z,2.90
2018-06-04T13:45:23.094Z,3.20
2018-06-04T13:46:50.806Z,3.10
2018-06-04T13:49:02.416Z,3.10
2018-06-04T13:50:25.592Z,3.10
2018-06-04T13:51:26.313Z,3.10
2018-06-04T13:53:27.564Z,3.20
2018-06-04T13:54:28.131Z,3.40
2018-06-04T13:55:28.730Z,3.10
2018-06-04T13:56:29.324Z,3.00
2018-06-04T13:57:30.004Z,3.10
2018-06-04T13:58:30.590Z,3.00
2018-06-04T13:59:31.190Z,2.90
2018-06-04T14:00:31.880Z,3.20
2018-06-04T14:01:32.477Z,3.00
2018-06-04T14:02:33.109Z,3.10
2018-06-04T14:03:33.738Z,2.90
2018-06-04T14:04:34.343Z,3.20
2018-06-04T14:05:34.956Z,2.80
2018-06-04T14:06:36.237Z,3.00
2018-06-04T14:07:36.863Z,2.90
2018-06-04T14:09:37.791Z,3.10
2018-06-04T14:10:38.405Z,3.10
2018-06-04T14:11:39.005Z,3.40
2018-06-04T14:12:39.649Z,3.30
2018-06-04T14:13:40.253Z,3.50
2018-06-04T14:14:40.863Z,3.40
2018-06-04T14:15:41.443Z,3.30
2018-06-04T14:16:55.665Z,3.00
2018-06-04T14:17:56.348Z,3.00
2018-06-04T14:18:56.937Z,3.10
2018-06-04T14:19:57.538Z,3.10
2018-06-04T14:20:58.148Z,3.10
2018-06-04T14:22:00.485Z,3.00
2018-06-04T14:23:01.093Z,3.30
2018-06-04T14:24:06.103Z,2.90
2018-06-04T14:25:06.748Z,3.20
2018-06-04T14:26:07.351Z,3.10
2018-06-04T14:27:07.935Z,3.50
2018-06-04T14:29:08.851Z,3.10
2018-06-04T14:30:09.497Z,3.00
2018-06-04T14:31:10.086Z,3.00
2018-06-04T14:32:10.869Z,3.00
2018-06-04T14:33:11.438Z,3.40
2018-06-04T14:34:12.076Z,3.20
2018-06-04T14:42:13.395Z,2.60
2018-06-04T14:43:14.006Z,3.30
2018-06-04T14:44:14.602Z,3.40
2018-06-04T14:45:15.258Z,3.40
2018-06-04T14:46:15.914Z,3.20
2018-06-04T14:47:16.824Z,3.20
2018-06-04T14:48:17.408Z,3.20
2018-06-04T14:50:18.257Z,3.10
2018-06-04T14:51:20.477Z,3.10
2018-06-04T14:52:21.144Z,2.90
2018-06-04T15:32:21.407Z,2.90
2018-06-04T15:33:22.086Z,3.30
2018-06-04T15:34:22.721Z,3.50
2018-06-04T15:43:19.557Z,3.40
2018-06-04T15:44:20.144Z,3.30
2018-06-04T15:46:21.017Z,3.30
2018-06-04T15:47:21.580Z,3.60
2018-06-04T16:13:01.620Z,2.90
2018-06-04T16:14:02.226Z,3.60
